sensor_id;sensor_type;location;lat;lon;timestamp;P1;durP1;ratioP1;P2;durP2;ratioP2
4460;SDS011;2243;48.812;9.232;2022-11-20T00:00:26;25.93;;;9.83;;
4460;SDS011;2243;48.812;9.232;2022-11-20T00:02:57;14.47;;;10.37;;
4460;SDS011;2243;48.812;9.232;2022-11-20T00:05:28;12.20;;;8.50;;
4460;SDS011;2243;48.812;9.232;2022-11-20T00:07:59;16.80;;;9.97;;
4460;SDS011;2243;48.812;9.232;2022-11-20T00:10:30;13.63;;;9.83;;
4460;SDS011;2243;48.812;9.232;2022-11-20T00:13:01;16.20;;;10.17;;
4460;SDS011;2243;48.812;9.232;2022-11-20T00:15:32;14.77;;;9.73;;
4460;SDS011;2243;48.812;9.232;2022-11-20T00:18:03;14.60;;;10.00;;
4460;SDS011;2243;48.812;9.232;2022-11-20T00:20:34;17.23;;;10.77;;
4460;SDS011;2243;48.812;9.232;2022-11-20T00:23:05;12.73;;;9.23;;
4460;SDS011;2243;48.812;9.232;2022-11-20T00:25:37;12.23;;;9.73;;
4460;SDS011;2243;48.812;9.232;2022-11-20T00:28:08;13.73;;;8.93;;
4460;SDS011;2243;48.812;9.232;2022-11-20T00:30:38;14.00;;;8.93;;
4460;SDS011;2243;48.812;9.232;2022-11-20T00:33:09;17.13;;;9.80;;
4460;SDS011;2243;48.812;9.232;2022-11-20T00:35:40;14.43;;;9.63;;
4460;SDS011;2243;48.812;9.232;2022-11-20T00:38:11;14.77;;;9.83;;
4460;SDS011;2243;48.812;9.232;2022-11-20T00:40:42;14.30;;;9.67;;
4460;SDS011;2243;48.812;9.232;2022-11-20T00:43:13;14.37;;;9.40;;
4460;SDS011;2243;48.812;9.232;2022-11-20T00:45:43;14.10;;;9.47;;
4460;SDS011;2243;48.812;9.232;2022-11-20T00:48:14;13.90;;;8.80;;
4460;SDS011;2243;48.812;9.232;2022-11-20T00:50:45;18.67;;;9.83;;
4460;SDS011;2243;48.812;9.232;2022-11-20T00:53:16;12.17;;;9.30;;
4460;SDS011;2243;48.812;9.232;2022-11-20T00:55:57;15.60;;;9.13;;
4460;SDS011;2243;48.812;9.232;2022-11-20T00:58:37;13.43;;;9.03;;
4460;SDS011;2243;48.812;9.232;2022-11-20T01:01:11;13.47;;;9.43;;
4460;SDS011;2243;48.812;9.232;2022-11-20T01:03:46;15.07;;;9.50;;
4460;SDS011;2243;48.812;9.232;2022-11-20T01:06:23;13.37;;;8.73;;
4460;SDS011;2243;48.812;9.232;2022-11-20T01:09:00;15.47;;;9.53;;
4460;SDS011;2243;48.812;9.232;2022-11-20T01:11:37;16.00;;;9.47;;
4460;SDS011;2243;48.812;9.232;2022-11-20T01:14:12;11.57;;;9.03;;
4460;SDS011;2243;48.812;9.232;2022-11-20T01:16:51;12.30;;;8.40;;
4460;SDS011;2243;48.812;9.232;2022-11-20T01:19:22;17.87;;;10.10;;
4460;SDS011;2243;48.812;9.232;2022-11-20T01:21:54;20.67;;;11.53;;
4460;SDS011;2243;48.812;9.232;2022-11-20T01:24:25;16.23;;;10.10;;
4460;SDS011;2243;48.812;9.232;2022-11-20T01:26:56;18.83;;;10.27;;
4460;SDS011;2243;48.812;9.232;2022-11-20T01:29:27;14.93;;;9.63;;
4460;SDS011;2243;48.812;9.232;2022-11-20T01:31:58;16.27;;;9.90;;
4460;SDS011;2243;48.812;9.232;2022-11-20T01:34:29;21.90;;;10.40;;
4460;SDS011;2243;48.812;9.232;2022-11-20T01:37:00;14.40;;;9.37;;
4460;SDS011;2243;48.812;9.232;2022-11-20T01:39:31;19.50;;;9.97;;
4460;SDS011;2243;48.812;9.232;2022-11-20T01:42:02;16.03;;;9.60;;
4460;SDS011;2243;48.812;9.232;2022-11-20T01:44:58;21.73;;;10.40;;
4460;SDS011;2243;48.812;9.232;2022-11-20T01:47:31;18.60;;;9.50;;
4460;SDS011;2243;48.812;9.232;2022-11-20T01:50:15;15.20;;;10.70;;
4460;SDS011;2243;48.812;9.232;2022-11-20T01:52:56;14.43;;;9.77;;
4460;SDS011;2243;48.812;9.232;2022-11-20T01:55:36;12.43;;;9.70;;
4460;SDS011;2243;48.812;9.232;2022-11-20T01:58:15;16.10;;;10.30;;
4460;SDS011;2243;48.812;9.232;2022-11-20T02:00:50;13.13;;;9.30;;
4460;SDS011;2243;48.812;9.232;2022-11-20T02:03:21;13.00;;;8.50;;
4460;SDS011;2243;48.812;9.232;2022-11-20T02:06:07;14.17;;;10.00;;
4460;SDS011;2243;48.812;9.232;2022-11-20T02:08:51;14.63;;;9.20;;
4460;SDS011;2243;48.812;9.232;2022-11-20T02:11:23;13.63;;;9.10;;
4460;SDS011;2243;48.812;9.232;2022-11-20T02:13:53;13.63;;;9.80;;
4460;SDS011;2243;48.812;9.232;2022-11-20T02:16:27;17.60;;;8.57;;
4460;SDS011;2243;48.812;9.232;2022-11-20T02:19:07;15.30;;;10.27;;
4460;SDS011;2243;48.812;9.232;2022-11-20T02:22:31;14.63;;;9.60;;
4460;SDS011;2243;48.812;9.232;2022-11-20T02:24:50;15.33;;;9.00;;
4460;SDS011;2243;48.812;9.232;2022-11-20T02:27:21;13.80;;;9.07;;
4460;SDS011;2243;48.812;9.232;2022-11-20T02:29:53;13.17;;;9.27;;
4460;SDS011;2243;48.812;9.232;2022-11-20T02:32:36;15.00;;;9.70;;
4460;SDS011;2243;48.812;9.232;2022-11-20T02:35:09;17.70;;;10.00;;
4460;SDS011;2243;48.812;9.232;2022-11-20T02:37:51;9.43;;;7.77;;
4460;SDS011;2243;48.812;9.232;2022-11-20T02:40:25;8.40;;;6.23;;
4460;SDS011;2243;48.812;9.232;2022-11-20T02:42:56;6.00;;;5.40;;
4460;SDS011;2243;48.812;9.232;2022-11-20T02:45:27;6.40;;;4.73;;
4460;SDS011;2243;48.812;9.232;2022-11-20T02:47:58;5.67;;;4.90;;
4460;SDS011;2243;48.812;9.232;2022-11-20T02:50:29;4.90;;;4.40;;
4460;SDS011;2243;48.812;9.232;2022-11-20T02:53:00;4.47;;;4.10;;
4460;SDS011;2243;48.812;9.232;2022-11-20T02:55:31;4.57;;;4.10;;
4460;SDS011;2243;48.812;9.232;2022-11-20T02:58:02;4.53;;;4.10;;
4460;SDS011;2243;48.812;9.232;2022-11-20T03:00:33;4.10;;;3.70;;
4460;SDS011;2243;48.812;9.232;2022-11-20T03:03:05;3.53;;;3.23;;
4460;SDS011;2243;48.812;9.232;2022-11-20T03:05:36;4.00;;;3.70;;
4460;SDS011;2243;48.812;9.232;2022-11-20T03:08:07;4.10;;;3.80;;
4460;SDS011;2243;48.812;9.232;2022-11-20T03:10:38;3.30;;;3.10;;
4460;SDS011;2243;48.812;9.232;2022-11-20T03:13:09;3.30;;;3.10;;
4460;SDS011;2243;48.812;9.232;2022-11-20T03:15:39;3.30;;;3.00;;
4460;SDS011;2243;48.812;9.232;2022-11-20T03:18:10;3.07;;;2.87;;
4460;SDS011;2243;48.812;9.232;2022-11-20T03:20:43;3.07;;;2.87;;
4460;SDS011;2243;48.812;9.232;2022-11-20T03:23:14;2.70;;;2.60;;
4460;SDS011;2243;48.812;9.232;2022-11-20T03:25:45;3.90;;;2.87;;
4460;SDS011;2243;48.812;9.232;2022-11-20T03:28:16;3.03;;;2.83;;
4460;SDS011;2243;48.812;9.232;2022-11-20T03:30:47;5.33;;;3.33;;
4460;SDS011;2243;48.812;9.232;2022-11-20T03:33:18;3.90;;;3.60;;
4460;SDS011;2243;48.812;9.232;2022-11-20T03:35:48;2.70;;;2.50;;
4460;SDS011;2243;48.812;9.232;2022-11-20T03:38:19;3.40;;;3.20;;
4460;SDS011;2243;48.812;9.232;2022-11-20T03:40:50;2.70;;;2.60;;
4460;SDS011;2243;48.812;9.232;2022-11-20T03:43:21;3.73;;;3.40;;
4460;SDS011;2243;48.812;9.232;2022-11-20T03:45:52;4.47;;;3.37;;
4460;SDS011;2243;48.812;9.232;2022-11-20T03:48:23;3.33;;;3.13;;
4460;SDS011;2243;48.812;9.232;2022-11-20T03:51:08;4.00;;;3.67;;
4460;SDS011;2243;48.812;9.232;2022-11-20T03:53:45;4.97;;;3.10;;
4460;SDS011;2243;48.812;9.232;2022-11-20T03:56:18;3.30;;;3.10;;
4460;SDS011;2243;48.812;9.232;2022-11-20T03:58:52;3.33;;;3.10;;
4460;SDS011;2243;48.812;9.232;2022-11-20T04:01:25;3.13;;;2.93;;
4460;SDS011;2243;48.812;9.232;2022-11-20T04:04:03;3.20;;;3.00;;
4460;SDS011;2243;48.812;9.232;2022-11-20T04:06:36;3.60;;;3.10;;
4460;SDS011;2243;48.812;9.232;2022-11-20T04:09:08;2.93;;;2.77;;
4460;SDS011;2243;48.812;9.232;2022-11-20T04:11:39;3.33;;;3.03;;
4460;SDS011;2243;48.812;9.232;2022-11-20T04:14:12;3.40;;;3.10;;
4460;SDS011;2243;48.812;9.232;2022-11-20T04:16:45;3.63;;;3.33;;
4460;SDS011;2243;48.812;9.232;2022-11-20T04:19:16;3.03;;;2.73;;
4460;SDS011;2243;48.812;9.232;2022-11-20T04:21:47;2.90;;;2.70;;
4460;SDS011;2243;48.812;9.232;2022-11-20T04:24:18;3.43;;;3.23;;
4460;SDS011;2243;48.812;9.232;2022-11-20T04:26:49;3.53;;;3.00;;
4460;SDS011;2243;48.812;9.232;2022-11-20T04:29:20;3.00;;;2.80;;
4460;SDS011;2243;48.812;9.232;2022-11-20T04:31:51;4.70;;;3.10;;
4460;SDS011;2243;48.812;9.232;2022-11-20T04:34:22;3.10;;;2.90;;
4460;SDS011;2243;48.812;9.232;2022-11-20T04:36:53;3.60;;;3.37;;
4460;SDS011;2243;48.812;9.232;2022-11-20T04:39:24;3.83;;;3.53;;
4460;SDS011;2243;48.812;9.232;2022-11-20T04:41:55;3.77;;;3.20;;
4460;SDS011;2243;48.812;9.232;2022-11-20T04:44:44;3.63;;;3.33;;
4460;SDS011;2243;48.812;9.232;2022-11-20T04:47:15;3.30;;;3.20;;
4460;SDS011;2243;48.812;9.232;2022-11-20T04:49:46;3.70;;;3.33;;
4460;SDS011;2243;48.812;9.232;2022-11-20T04:52:17;3.70;;;3.50;;
4460;SDS011;2243;48.812;9.232;2022-11-20T04:54:48;3.40;;;3.20;;
4460;SDS011;2243;48.812;9.232;2022-11-20T04:57:22;7.80;;;4.13;;
4460;SDS011;2243;48.812;9.232;2022-11-20T04:59:53;3.40;;;3.10;;
4460;SDS011;2243;48.812;9.232;2022-11-20T05:02:25;3.87;;;3.57;;
4460;SDS011;2243;48.812;9.232;2022-11-20T05:04:55;4.50;;;3.50;;
4460;SDS011;2243;48.812;9.232;2022-11-20T05:07:26;3.90;;;3.50;;
4460;SDS011;2243;48.812;9.232;2022-11-20T05:09:57;3.80;;;3.60;;
4460;SDS011;2243;48.812;9.232;2022-11-20T05:12:28;3.43;;;3.23;;
4460;SDS011;2243;48.812;9.232;2022-11-20T05:14:59;2.90;;;2.80;;
4460;SDS011;2243;48.812;9.232;2022-11-20T05:17:30;3.43;;;3.23;;
4460;SDS011;2243;48.812;9.232;2022-11-20T05:20:01;8.17;;;3.63;;
4460;SDS011;2243;48.812;9.232;2022-11-20T05:22:32;3.50;;;3.33;;
4460;SDS011;2243;48.812;9.232;2022-11-20T05:25:03;3.23;;;3.03;;
4460;SDS011;2243;48.812;9.232;2022-11-20T05:27:35;4.27;;;3.93;;
4460;SDS011;2243;48.812;9.232;2022-11-20T05:30:06;4.23;;;3.93;;
4460;SDS011;2243;48.812;9.232;2022-11-20T05:32:38;3.90;;;3.23;;
4460;SDS011;2243;48.812;9.232;2022-11-20T05:35:09;4.07;;;3.67;;
4460;SDS011;2243;48.812;9.232;2022-11-20T05:37:40;3.43;;;3.23;;
4460;SDS011;2243;48.812;9.232;2022-11-20T05:40:11;6.90;;;3.37;;
4460;SDS011;2243;48.812;9.232;2022-11-20T05:42:42;6.60;;;2.83;;
4460;SDS011;2243;48.812;9.232;2022-11-20T05:45:13;3.90;;;3.60;;
4460;SDS011;2243;48.812;9.232;2022-11-20T05:47:44;3.47;;;3.27;;
4460;SDS011;2243;48.812;9.232;2022-11-20T05:50:15;3.40;;;3.20;;
4460;SDS011;2243;48.812;9.232;2022-11-20T05:52:46;4.00;;;3.67;;
4460;SDS011;2243;48.812;9.232;2022-11-20T05:55:17;3.50;;;3.20;;
4460;SDS011;2243;48.812;9.232;2022-11-20T05:57:48;3.27;;;2.97;;
4460;SDS011;2243;48.812;9.232;2022-11-20T06:00:19;3.20;;;3.00;;
4460;SDS011;2243;48.812;9.232;2022-11-20T06:02:50;3.27;;;3.07;;
4460;SDS011;2243;48.812;9.232;2022-11-20T06:05:21;2.50;;;2.40;;
4460;SDS011;2243;48.812;9.232;2022-11-20T06:07:52;2.87;;;2.67;;
4460;SDS011;2243;48.812;9.232;2022-11-20T06:10:23;3.00;;;2.80;;
4460;SDS011;2243;48.812;9.232;2022-11-20T06:12:56;3.23;;;2.80;;
4460;SDS011;2243;48.812;9.232;2022-11-20T06:15:28;3.13;;;3.00;;
4460;SDS011;2243;48.812;9.232;2022-11-20T06:17:59;3.17;;;2.97;;
4460;SDS011;2243;48.812;9.232;2022-11-20T06:20:30;3.00;;;2.80;;
4460;SDS011;2243;48.812;9.232;2022-11-20T06:23:00;3.30;;;2.97;;
4460;SDS011;2243;48.812;9.232;2022-11-20T06:25:31;2.83;;;2.50;;
4460;SDS011;2243;48.812;9.232;2022-11-20T06:28:02;2.93;;;2.83;;
4460;SDS011;2243;48.812;9.232;2022-11-20T06:30:33;4.80;;;2.40;;
4460;SDS011;2243;48.812;9.232;2022-11-20T06:33:05;3.03;;;2.73;;
4460;SDS011;2243;48.812;9.232;2022-11-20T06:35:36;2.93;;;2.77;;
4460;SDS011;2243;48.812;9.232;2022-11-20T06:38:06;2.73;;;2.60;;
4460;SDS011;2243;48.812;9.232;2022-11-20T06:40:39;2.70;;;2.60;;
4460;SDS011;2243;48.812;9.232;2022-11-20T06:43:11;3.07;;;2.97;;
4460;SDS011;2243;48.812;9.232;2022-11-20T06:45:42;2.60;;;2.50;;
4460;SDS011;2243;48.812;9.232;2022-11-20T06:48:13;2.93;;;2.53;;
4460;SDS011;2243;48.812;9.232;2022-11-20T06:50:44;3.10;;;2.30;;
4460;SDS011;2243;48.812;9.232;2022-11-20T06:53:15;3.17;;;2.97;;
4460;SDS011;2243;48.812;9.232;2022-11-20T06:55:46;3.83;;;2.53;;
4460;SDS011;2243;48.812;9.232;2022-11-20T06:58:18;2.30;;;2.20;;
4460;SDS011;2243;48.812;9.232;2022-11-20T07:00:49;2.87;;;2.67;;
4460;SDS011;2243;48.812;9.232;2022-11-20T07:03:20;2.20;;;2.10;;
4460;SDS011;2243;48.812;9.232;2022-11-20T07:05:51;2.70;;;2.50;;
4460;SDS011;2243;48.812;9.232;2022-11-20T07:08:25;2.63;;;2.47;;
4460;SDS011;2243;48.812;9.232;2022-11-20T07:10:57;2.33;;;2.23;;
4460;SDS011;2243;48.812;9.232;2022-11-20T07:13:30;2.60;;;2.40;;
4460;SDS011;2243;48.812;9.232;2022-11-20T07:16:02;2.47;;;2.37;;
4460;SDS011;2243;48.812;9.232;2022-11-20T07:18:36;2.77;;;2.57;;
4460;SDS011;2243;48.812;9.232;2022-11-20T07:21:08;3.47;;;2.40;;
4460;SDS011;2243;48.812;9.232;2022-11-20T07:23:40;2.07;;;1.97;;
4460;SDS011;2243;48.812;9.232;2022-11-20T07:26:11;3.17;;;2.97;;
4460;SDS011;2243;48.812;9.232;2022-11-20T07:28:43;2.60;;;2.50;;
4460;SDS011;2243;48.812;9.232;2022-11-20T07:31:15;2.40;;;2.20;;
4460;SDS011;2243;48.812;9.232;2022-11-20T07:33:48;2.43;;;2.30;;
4460;SDS011;2243;48.812;9.232;2022-11-20T07:36:20;2.40;;;2.20;;
4460;SDS011;2243;48.812;9.232;2022-11-20T07:38:51;2.17;;;2.07;;
4460;SDS011;2243;48.812;9.232;2022-11-20T07:41:21;2.80;;;2.60;;
4460;SDS011;2243;48.812;9.232;2022-11-20T07:43:52;2.13;;;2.03;;
4460;SDS011;2243;48.812;9.232;2022-11-20T07:46:23;2.80;;;2.60;;
4460;SDS011;2243;48.812;9.232;2022-11-20T07:48:55;2.70;;;2.60;;
4460;SDS011;2243;48.812;9.232;2022-11-20T07:51:26;2.00;;;1.90;;
4460;SDS011;2243;48.812;9.232;2022-11-20T07:53:57;2.10;;;2.00;;
4460;SDS011;2243;48.812;9.232;2022-11-20T07:56:28;2.57;;;2.37;;
4460;SDS011;2243;48.812;9.232;2022-11-20T07:58:59;3.33;;;2.73;;
4460;SDS011;2243;48.812;9.232;2022-11-20T08:01:30;2.10;;;2.00;;
4460;SDS011;2243;48.812;9.232;2022-11-20T08:04:01;2.63;;;2.33;;
4460;SDS011;2243;48.812;9.232;2022-11-20T08:06:34;2.73;;;2.53;;
4460;SDS011;2243;48.812;9.232;2022-11-20T08:09:05;2.10;;;1.90;;
4460;SDS011;2243;48.812;9.232;2022-11-20T08:11:36;2.37;;;2.27;;
4460;SDS011;2243;48.812;9.232;2022-11-20T08:14:28;2.70;;;2.50;;
4460;SDS011;2243;48.812;9.232;2022-11-20T08:16:59;2.83;;;2.50;;
4460;SDS011;2243;48.812;9.232;2022-11-20T08:19:30;2.43;;;2.33;;
4460;SDS011;2243;48.812;9.232;2022-11-20T08:22:01;2.20;;;2.10;;
4460;SDS011;2243;48.812;9.232;2022-11-20T08:24:32;2.37;;;2.17;;
4460;SDS011;2243;48.812;9.232;2022-11-20T08:27:03;2.33;;;2.23;;
4460;SDS011;2243;48.812;9.232;2022-11-20T08:29:34;3.57;;;1.97;;
4460;SDS011;2243;48.812;9.232;2022-11-20T08:32:05;2.10;;;2.00;;
4460;SDS011;2243;48.812;9.232;2022-11-20T08:34:36;1.80;;;1.70;;
4460;SDS011;2243;48.812;9.232;2022-11-20T08:37:07;2.53;;;2.33;;
4460;SDS011;2243;48.812;9.232;2022-11-20T08:39:37;2.40;;;2.20;;
4460;SDS011;2243;48.812;9.232;2022-11-20T08:42:08;1.97;;;1.87;;
4460;SDS011;2243;48.812;9.232;2022-11-20T08:44:39;2.10;;;2.00;;
4460;SDS011;2243;48.812;9.232;2022-11-20T08:47:10;4.87;;;2.33;;
4460;SDS011;2243;48.812;9.232;2022-11-20T08:49:43;1.70;;;1.60;;
4460;SDS011;2243;48.812;9.232;2022-11-20T08:52:14;1.87;;;1.77;;
4460;SDS011;2243;48.812;9.232;2022-11-20T08:54:45;1.70;;;1.60;;
4460;SDS011;2243;48.812;9.232;2022-11-20T08:57:16;1.70;;;1.60;;
4460;SDS011;2243;48.812;9.232;2022-11-20T08:59:47;1.53;;;1.53;;
4460;SDS011;2243;48.812;9.232;2022-11-20T09:02:36;2.40;;;2.00;;
4460;SDS011;2243;48.812;9.232;2022-11-20T09:05:07;1.67;;;1.40;;
4460;SDS011;2243;48.812;9.232;2022-11-20T09:07:38;1.77;;;1.67;;
4460;SDS011;2243;48.812;9.232;2022-11-20T09:10:10;1.30;;;1.30;;
4460;SDS011;2243;48.812;9.232;2022-11-20T09:12:56;1.50;;;1.50;;
4460;SDS011;2243;48.812;9.232;2022-11-20T09:15:28;1.50;;;1.40;;
4460;SDS011;2243;48.812;9.232;2022-11-20T09:18:00;1.47;;;1.33;;
4460;SDS011;2243;48.812;9.232;2022-11-20T09:20:33;1.50;;;1.40;;
4460;SDS011;2243;48.812;9.232;2022-11-20T09:23:05;1.57;;;1.50;;
4460;SDS011;2243;48.812;9.232;2022-11-20T09:25:36;1.40;;;1.40;;
4460;SDS011;2243;48.812;9.232;2022-11-20T09:28:07;1.23;;;1.23;;
4460;SDS011;2243;48.812;9.232;2022-11-20T09:30:38;1.40;;;1.30;;
4460;SDS011;2243;48.812;9.232;2022-11-20T09:33:09;2.80;;;1.20;;
4460;SDS011;2243;48.812;9.232;2022-11-20T09:35:40;1.23;;;1.00;;
4460;SDS011;2243;48.812;9.232;2022-11-20T09:38:11;2.93;;;1.20;;
4460;SDS011;2243;48.812;9.232;2022-11-20T09:40:46;0.90;;;0.90;;
4460;SDS011;2243;48.812;9.232;2022-11-20T09:46:49;1.30;;;1.20;;
4460;SDS011;2243;48.812;9.232;2022-11-20T09:52:32;1.10;;;1.00;;
4460;SDS011;2243;48.812;9.232;2022-11-20T09:55:31;0.80;;;0.80;;
4460;SDS011;2243;48.812;9.232;2022-11-20T09:58:02;0.90;;;0.90;;
4460;SDS011;2243;48.812;9.232;2022-11-20T10:00:38;3.03;;;1.87;;
4460;SDS011;2243;48.812;9.232;2022-11-20T10:06:42;1.00;;;1.00;;
4460;SDS011;2243;48.812;9.232;2022-11-20T10:09:38;2.50;;;1.37;;
4460;SDS011;2243;48.812;9.232;2022-11-20T10:12:37;1.73;;;0.97;;
4460;SDS011;2243;48.812;9.232;2022-11-20T10:15:46;1.10;;;1.10;;
4460;SDS011;2243;48.812;9.232;2022-11-20T10:30:31;1.30;;;1.20;;
4460;SDS011;2243;48.812;9.232;2022-11-20T10:33:21;1.10;;;1.10;;
4460;SDS011;2243;48.812;9.232;2022-11-20T10:38:58;1.77;;;1.27;;
4460;SDS011;2243;48.812;9.232;2022-11-20T10:41:42;0.97;;;0.97;;
4460;SDS011;2243;48.812;9.232;2022-11-20T10:44:19;2.70;;;2.50;;
4460;SDS011;2243;48.812;9.232;2022-11-20T10:47:17;1.60;;;1.50;;
4460;SDS011;2243;48.812;9.232;2022-11-20T10:49:50;1.00;;;1.00;;
4460;SDS011;2243;48.812;9.232;2022-11-20T10:52:37;1.37;;;1.37;;
4460;SDS011;2243;48.812;9.232;2022-11-20T10:55:45;1.17;;;1.07;;
4460;SDS011;2243;48.812;9.232;2022-11-20T10:59:15;1.10;;;1.10;;
4460;SDS011;2243;48.812;9.232;2022-11-20T11:01:30;1.93;;;1.83;;
4460;SDS011;2243;48.812;9.232;2022-11-20T11:04:01;1.80;;;1.70;;
4460;SDS011;2243;48.812;9.232;2022-11-20T11:06:40;1.47;;;1.37;;
4460;SDS011;2243;48.812;9.232;2022-11-20T11:09:19;1.70;;;1.60;;
4460;SDS011;2243;48.812;9.232;2022-11-20T11:12:08;1.60;;;1.50;;
4460;SDS011;2243;48.812;9.232;2022-11-20T11:14:43;1.60;;;1.50;;
4460;SDS011;2243;48.812;9.232;2022-11-20T11:17:27;1.80;;;1.70;;
4460;SDS011;2243;48.812;9.232;2022-11-20T11:20:02;1.73;;;1.63;;
4460;SDS011;2243;48.812;9.232;2022-11-20T11:22:45;1.97;;;1.40;;
4460;SDS011;2243;48.812;9.232;2022-11-20T11:28:19;1.63;;;1.60;;
4460;SDS011;2243;48.812;9.232;2022-11-20T11:30:54;1.67;;;1.57;;
4460;SDS011;2243;48.812;9.232;2022-11-20T11:33:27;2.00;;;1.90;;
4460;SDS011;2243;48.812;9.232;2022-11-20T11:36:01;1.83;;;1.73;;
4460;SDS011;2243;48.812;9.232;2022-11-20T11:38:42;2.37;;;2.13;;
4460;SDS011;2243;48.812;9.232;2022-11-20T11:41:22;2.37;;;2.17;;
4460;SDS011;2243;48.812;9.232;2022-11-20T11:47:24;4.20;;;2.60;;
4460;SDS011;2243;48.812;9.232;2022-11-20T11:56:03;2.50;;;2.30;;
4460;SDS011;2243;48.812;9.232;2022-11-20T11:58:52;3.13;;;2.10;;
4460;SDS011;2243;48.812;9.232;2022-11-20T12:01:37;1.80;;;1.70;;
4460;SDS011;2243;48.812;9.232;2022-11-20T12:04:57;4.70;;;2.13;;
4460;SDS011;2243;48.812;9.232;2022-11-20T12:07:41;1.87;;;1.77;;
4460;SDS011;2243;48.812;9.232;2022-11-20T12:13:15;3.27;;;2.23;;
4460;SDS011;2243;48.812;9.232;2022-11-20T12:16:01;3.37;;;1.90;;
4460;SDS011;2243;48.812;9.232;2022-11-20T12:18:34;4.07;;;2.57;;
4460;SDS011;2243;48.812;9.232;2022-11-20T12:21:15;3.50;;;2.47;;
4460;SDS011;2243;48.812;9.232;2022-11-20T12:24:30;1.40;;;1.40;;
4460;SDS011;2243;48.812;9.232;2022-11-20T12:33:44;1.70;;;1.60;;
4460;SDS011;2243;48.812;9.232;2022-11-20T12:36:39;1.37;;;1.27;;
4460;SDS011;2243;48.812;9.232;2022-11-20T12:42:23;1.70;;;1.60;;
4460;SDS011;2243;48.812;9.232;2022-11-20T12:51:48;1.37;;;1.37;;
4460;SDS011;2243;48.812;9.232;2022-11-20T12:54:55;1.20;;;1.20;;
4460;SDS011;2243;48.812;9.232;2022-11-20T13:00:35;1.77;;;1.23;;
4460;SDS011;2243;48.812;9.232;2022-11-20T13:03:28;1.57;;;1.47;;
4460;SDS011;2243;48.812;9.232;2022-11-20T13:06:17;3.17;;;1.60;;
4460;SDS011;2243;48.812;9.232;2022-11-20T13:08:55;4.43;;;1.50;;
4460;SDS011;2243;48.812;9.232;2022-11-20T13:11:29;1.33;;;1.10;;
4460;SDS011;2243;48.812;9.232;2022-11-20T13:19:58;1.00;;;1.00;;
4460;SDS011;2243;48.812;9.232;2022-11-20T13:30:49;1.13;;;1.10;;
4460;SDS011;2243;48.812;9.232;2022-11-20T13:33:36;2.43;;;1.60;;
4460;SDS011;2243;48.812;9.232;2022-11-20T13:36:21;1.40;;;1.30;;
4460;SDS011;2243;48.812;9.232;2022-11-20T13:38:56;1.47;;;1.37;;
4460;SDS011;2243;48.812;9.232;2022-11-20T13:41:34;1.40;;;1.40;;
4460;SDS011;2243;48.812;9.232;2022-11-20T13:46:45;4.30;;;1.67;;
4460;SDS011;2243;48.812;9.232;2022-11-20T13:52:30;1.13;;;1.13;;
4460;SDS011;2243;48.812;9.232;2022-11-20T13:55:38;1.27;;;1.20;;
4460;SDS011;2243;48.812;9.232;2022-11-20T14:01:30;1.63;;;1.30;;
4460;SDS011;2243;48.812;9.232;2022-11-20T14:04:08;1.17;;;1.07;;
4460;SDS011;2243;48.812;9.232;2022-11-20T14:06:45;0.83;;;0.83;;
4460;SDS011;2243;48.812;9.232;2022-11-20T14:09:26;2.60;;;1.10;;
4460;SDS011;2243;48.812;9.232;2022-11-20T14:12:00;0.83;;;0.83;;
4460;SDS011;2243;48.812;9.232;2022-11-20T14:14:33;1.93;;;0.90;;
4460;SDS011;2243;48.812;9.232;2022-11-20T14:17:17;1.13;;;1.13;;
4460;SDS011;2243;48.812;9.232;2022-11-20T14:20:11;1.80;;;1.20;;
4460;SDS011;2243;48.812;9.232;2022-11-20T14:22:49;1.10;;;1.10;;
4460;SDS011;2243;48.812;9.232;2022-11-20T14:25:26;1.40;;;1.30;;
4460;SDS011;2243;48.812;9.232;2022-11-20T14:27:58;1.17;;;1.10;;
4460;SDS011;2243;48.812;9.232;2022-11-20T14:30:44;1.10;;;1.10;;
4460;SDS011;2243;48.812;9.232;2022-11-20T14:33:17;1.60;;;1.50;;
4460;SDS011;2243;48.812;9.232;2022-11-20T14:35:59;1.40;;;1.40;;
4460;SDS011;2243;48.812;9.232;2022-11-20T14:38:31;1.43;;;1.40;;
4460;SDS011;2243;48.812;9.232;2022-11-20T14:41:06;1.33;;;1.00;;
4460;SDS011;2243;48.812;9.232;2022-11-20T14:43:58;1.43;;;1.33;;
4460;SDS011;2243;48.812;9.232;2022-11-20T14:46:30;2.30;;;1.87;;
4460;SDS011;2243;48.812;9.232;2022-11-20T14:49:02;5.50;;;1.43;;
4460;SDS011;2243;48.812;9.232;2022-11-20T14:51:35;1.70;;;1.60;;
4460;SDS011;2243;48.812;9.232;2022-11-20T14:54:15;2.60;;;2.47;;
4460;SDS011;2243;48.812;9.232;2022-11-20T14:57:00;2.40;;;1.70;;
4460;SDS011;2243;48.812;9.232;2022-11-20T14:59:34;5.37;;;1.60;;
4460;SDS011;2243;48.812;9.232;2022-11-20T15:02:06;4.43;;;2.00;;
4460;SDS011;2243;48.812;9.232;2022-11-20T15:04:51;2.07;;;1.93;;
4460;SDS011;2243;48.812;9.232;2022-11-20T15:07:33;2.30;;;1.70;;
4460;SDS011;2243;48.812;9.232;2022-11-20T15:10:07;2.50;;;1.47;;
4460;SDS011;2243;48.812;9.232;2022-11-20T15:13:03;1.80;;;1.70;;
4460;SDS011;2243;48.812;9.232;2022-11-20T15:16:00;3.80;;;1.90;;
4460;SDS011;2243;48.812;9.232;2022-11-20T15:18:37;2.43;;;2.23;;
4460;SDS011;2243;48.812;9.232;2022-11-20T15:21:15;3.47;;;3.10;;
4460;SDS011;2243;48.812;9.232;2022-11-20T15:23:49;2.03;;;1.73;;
4460;SDS011;2243;48.812;9.232;2022-11-20T15:26:26;1.80;;;1.67;;
4460;SDS011;2243;48.812;9.232;2022-11-20T15:28:58;4.37;;;2.43;;
4460;SDS011;2243;48.812;9.232;2022-11-20T15:31:29;3.00;;;1.90;;
4460;SDS011;2243;48.812;9.232;2022-11-20T15:34:00;3.03;;;2.73;;
4460;SDS011;2243;48.812;9.232;2022-11-20T15:36:31;3.60;;;2.83;;
4460;SDS011;2243;48.812;9.232;2022-11-20T15:39:01;2.80;;;2.40;;
4460;SDS011;2243;48.812;9.232;2022-11-20T15:41:33;3.30;;;2.70;;
4460;SDS011;2243;48.812;9.232;2022-11-20T15:44:05;7.10;;;5.80;;
4460;SDS011;2243;48.812;9.232;2022-11-20T15:46:37;9.07;;;6.67;;
4460;SDS011;2243;48.812;9.232;2022-11-20T15:49:13;2.77;;;2.57;;
4460;SDS011;2243;48.812;9.232;2022-11-20T15:51:47;6.23;;;3.30;;
4460;SDS011;2243;48.812;9.232;2022-11-20T15:54:20;4.33;;;3.87;;
4460;SDS011;2243;48.812;9.232;2022-11-20T15:56:53;3.30;;;3.07;;
4460;SDS011;2243;48.812;9.232;2022-11-20T15:59:24;2.27;;;2.07;;
4460;SDS011;2243;48.812;9.232;2022-11-20T16:01:55;1.80;;;1.70;;
4460;SDS011;2243;48.812;9.232;2022-11-20T16:04:26;2.10;;;2.00;;
4460;SDS011;2243;48.812;9.232;2022-11-20T16:06:57;3.70;;;3.40;;
4460;SDS011;2243;48.812;9.232;2022-11-20T16:09:28;3.83;;;2.60;;
4460;SDS011;2243;48.812;9.232;2022-11-20T16:11:59;3.40;;;2.83;;
4460;SDS011;2243;48.812;9.232;2022-11-20T16:14:30;8.77;;;2.90;;
4460;SDS011;2243;48.812;9.232;2022-11-20T16:17:19;3.97;;;3.43;;
4460;SDS011;2243;48.812;9.232;2022-11-20T16:20:10;2.30;;;2.20;;
4460;SDS011;2243;48.812;9.232;2022-11-20T16:22:42;7.23;;;5.47;;
4460;SDS011;2243;48.812;9.232;2022-11-20T16:25:13;3.17;;;2.97;;
4460;SDS011;2243;48.812;9.232;2022-11-20T16:27:44;11.90;;;8.10;;
4460;SDS011;2243;48.812;9.232;2022-11-20T16:30:14;6.53;;;5.93;;
4460;SDS011;2243;48.812;9.232;2022-11-20T16:32:45;6.37;;;5.43;;
4460;SDS011;2243;48.812;9.232;2022-11-20T16:35:16;4.70;;;2.87;;
4460;SDS011;2243;48.812;9.232;2022-11-20T16:37:47;6.43;;;3.27;;
4460;SDS011;2243;48.812;9.232;2022-11-20T16:40:18;3.40;;;3.10;;
4460;SDS011;2243;48.812;9.232;2022-11-20T16:42:49;3.20;;;3.00;;
4460;SDS011;2243;48.812;9.232;2022-11-20T16:45:21;5.63;;;2.90;;
4460;SDS011;2243;48.812;9.232;2022-11-20T16:47:58;2.90;;;2.70;;
4460;SDS011;2243;48.812;9.232;2022-11-20T16:50:28;2.87;;;2.60;;
4460;SDS011;2243;48.812;9.232;2022-11-20T16:52:59;9.53;;;4.60;;
4460;SDS011;2243;48.812;9.232;2022-11-20T16:55:30;13.97;;;10.70;;
4460;SDS011;2243;48.812;9.232;2022-11-20T16:58:01;5.00;;;4.53;;
4460;SDS011;2243;48.812;9.232;2022-11-20T17:00:34;3.83;;;3.57;;
4460;SDS011;2243;48.812;9.232;2022-11-20T17:03:09;3.63;;;3.33;;
4460;SDS011;2243;48.812;9.232;2022-11-20T17:05:40;3.60;;;3.40;;
4460;SDS011;2243;48.812;9.232;2022-11-20T17:08:11;3.30;;;3.10;;
4460;SDS011;2243;48.812;9.232;2022-11-20T17:10:42;3.97;;;3.67;;
4460;SDS011;2243;48.812;9.232;2022-11-20T17:13:12;3.93;;;3.30;;
4460;SDS011;2243;48.812;9.232;2022-11-20T17:15:43;3.80;;;3.50;;
4460;SDS011;2243;48.812;9.232;2022-11-20T17:18:14;3.30;;;3.00;;
4460;SDS011;2243;48.812;9.232;2022-11-20T17:20:50;4.10;;;3.80;;
4460;SDS011;2243;48.812;9.232;2022-11-20T17:23:21;3.47;;;3.27;;